SWA5611 KLAX-KTUS
Flight info
| Callsign | SWA5611 |
|---|---|
| Flight time | 1h 12m |
| Altitude | 37000 |
| Route | DOTSS2 CNERY BLH J50 GBN DINGO6 |
| Aircraft | B738/M-SDE2E3GHIJ4J7P2RWZ/LB1D1 |
Departure
| Time | 2026-05-09 02:18 |
|---|---|
| Airport | Los Angeles International Airport (KLAX) |
Arrival
| Time | 2026-05-09 03:30 |
|---|---|
| Airport | Tucson International Airport (KTUS) |
| Time | Latitude | Longitude | Altitude | Speed | Heading |
|---|---|---|---|---|---|
| 2026-05-09 01:54 | 33.94802 | -118.40075 | 125 ft | 0 kts | 227° |
| 2026-05-09 02:11 | 33.94813 | -118.40060 | 120 ft | 4 kts | 250° |
| 2026-05-09 02:11 | 33.94814 | -118.40031 | 123 ft | 4 kts | 297° |
| 2026-05-09 02:11 | 33.94797 | -118.40009 | 120 ft | 4 kts | 345° |
| 2026-05-09 02:12 | 33.94788 | -118.40007 | 121 ft | 0 kts | 4° |
| 2026-05-09 02:15 | 33.94795 | -118.40006 | 120 ft | 7 kts | 3° |
| 2026-05-09 02:15 | 33.94848 | -118.40058 | 122 ft | 10 kts | 303° |
| 2026-05-09 02:15 | 33.94921 | -118.40038 | 122 ft | 19 kts | 74° |
| 2026-05-09 02:16 | 33.94958 | -118.39926 | 121 ft | 14 kts | 33° |
| 2026-05-09 02:16 | 33.95030 | -118.39933 | 123 ft | 10 kts | 319° |
| 2026-05-09 02:16 | 33.95039 | -118.39980 | 123 ft | 0 kts | 265° |
| 2026-05-09 02:17 | 33.95031 | -118.40069 | 124 ft | 38 kts | 263° |
| 2026-05-09 02:18 | 33.94970 | -118.40656 | 125 ft | 101 kts | 263° |
| 2026-05-09 02:18 | 33.94858 | -118.41732 | 243 ft | 149 kts | 262° |
| 2026-05-09 02:18 | 33.94706 | -118.43022 | 882 ft | 167 kts | 259° |
| 2026-05-09 02:18 | 33.94426 | -118.44439 | 1627 ft | 175 kts | 252° |
| 2026-05-09 02:19 | 33.94165 | -118.45889 | 2199 ft | 180 kts | 264° |
| 2026-05-09 02:19 | 33.94109 | -118.47482 | 2516 ft | 207 kts | 271° |
| 2026-05-09 02:19 | 33.94122 | -118.49298 | 2915 ft | 223 kts | 270° |
| 2026-05-09 02:19 | 33.94121 | -118.51193 | 3484 ft | 235 kts | 269° |
| 2026-05-09 02:20 | 33.94048 | -118.53213 | 4060 ft | 249 kts | 268° |
| 2026-05-09 02:20 | 33.93909 | -118.55349 | 4671 ft | 260 kts | 266° |
| 2026-05-09 02:20 | 33.93724 | -118.57562 | 5415 ft | 270 kts | 265° |
| 2026-05-09 02:20 | 33.93538 | -118.59810 | 6382 ft | 271 kts | 263° |
| 2026-05-09 02:21 | 33.92964 | -118.62005 | 7141 ft | 280 kts | 247° |
| 2026-05-09 02:21 | 33.91952 | -118.63981 | 8090 ft | 281 kts | 226° |
| 2026-05-09 02:21 | 33.90218 | -118.65044 | 8964 ft | 288 kts | 190° |
| 2026-05-09 02:21 | 33.88218 | -118.64803 | 9839 ft | 293 kts | 164° |
| 2026-05-09 02:22 | 33.86210 | -118.64222 | 10475 ft | 304 kts | 172° |
| 2026-05-09 02:22 | 33.84044 | -118.63716 | 10646 ft | 332 kts | 162° |
| 2026-05-09 02:22 | 33.82004 | -118.62290 | 10875 ft | 355 kts | 144° |
| 2026-05-09 02:22 | 33.79976 | -118.60509 | 11356 ft | 366 kts | 146° |
| 2026-05-09 02:23 | 33.77889 | -118.58738 | 12085 ft | 369 kts | 146° |
| 2026-05-09 02:23 | 33.75751 | -118.57001 | 12775 ft | 373 kts | 148° |
| 2026-05-09 02:23 | 33.73579 | -118.55270 | 13490 ft | 377 kts | 145° |
| 2026-05-09 02:23 | 33.71436 | -118.53456 | 14232 ft | 378 kts | 143° |
| 2026-05-09 02:24 | 33.69587 | -118.51194 | 14842 ft | 382 kts | 124° |
| 2026-05-09 02:24 | 33.68430 | -118.48316 | 15470 ft | 386 kts | 106° |
| 2026-05-09 02:24 | 33.67687 | -118.45202 | 16147 ft | 388 kts | 108° |
| 2026-05-09 02:24 | 33.66801 | -118.42129 | 16733 ft | 394 kts | 109° |
| 2026-05-09 02:25 | 33.65857 | -118.39007 | 17244 ft | 400 kts | 109° |
| 2026-05-09 02:25 | 33.64941 | -118.35828 | 17852 ft | 404 kts | 105° |
| 2026-05-09 02:25 | 33.64386 | -118.32516 | 18401 ft | 408 kts | 96° |
| 2026-05-09 02:25 | 33.64213 | -118.29107 | 18928 ft | 410 kts | 90° |
| 2026-05-09 02:26 | 33.64236 | -118.25678 | 19482 ft | 412 kts | 88° |
| 2026-05-09 02:26 | 33.64314 | -118.22230 | 19982 ft | 416 kts | 88° |
| 2026-05-09 02:26 | 33.64387 | -118.18744 | 20535 ft | 418 kts | 88° |
| 2026-05-09 02:26 | 33.64435 | -118.15235 | 21075 ft | 421 kts | 89° |
| 2026-05-09 02:27 | 33.64460 | -118.11707 | 21601 ft | 424 kts | 89° |
| 2026-05-09 02:27 | 33.64467 | -118.08159 | 22134 ft | 427 kts | 89° |
| 2026-05-09 02:27 | 33.64466 | -118.04629 | 22616 ft | 431 kts | 89° |
| 2026-05-09 02:27 | 33.64460 | -118.01019 | 23095 ft | 434 kts | 90° |
| 2026-05-09 02:28 | 33.64453 | -117.97387 | 23585 ft | 437 kts | 89° |
| 2026-05-09 02:28 | 33.64445 | -117.93723 | 23983 ft | 440 kts | 89° |
| 2026-05-09 02:28 | 33.64434 | -117.90051 | 24474 ft | 440 kts | 90° |
| 2026-05-09 02:28 | 33.64432 | -117.86373 | 24896 ft | 442 kts | 89° |
| 2026-05-09 02:29 | 33.64436 | -117.82673 | 25265 ft | 445 kts | 90° |
| 2026-05-09 02:29 | 33.64243 | -117.78952 | 25645 ft | 449 kts | 97° |
| 2026-05-09 02:29 | 33.63530 | -117.75288 | 26046 ft | 452 kts | 106° |
| 2026-05-09 02:29 | 33.62613 | -117.71673 | 26481 ft | 453 kts | 107° |
| 2026-05-09 02:30 | 33.61674 | -117.68069 | 27016 ft | 451 kts | 107° |
| 2026-05-09 02:30 | 33.60747 | -117.64484 | 27586 ft | 449 kts | 106° |
| 2026-05-09 02:30 | 33.59836 | -117.60909 | 28150 ft | 448 kts | 106° |
| 2026-05-09 02:30 | 33.58939 | -117.57332 | 28682 ft | 447 kts | 105° |
| 2026-05-09 02:31 | 33.58053 | -117.53766 | 29174 ft | 447 kts | 105° |
| 2026-05-09 02:31 | 33.57169 | -117.50195 | 29709 ft | 446 kts | 105° |
| 2026-05-09 02:31 | 33.56287 | -117.46632 | 30233 ft | 445 kts | 106° |
| 2026-05-09 02:31 | 33.55404 | -117.43079 | 30694 ft | 444 kts | 105° |
| 2026-05-09 02:32 | 33.54518 | -117.39546 | 31142 ft | 442 kts | 106° |
| 2026-05-09 02:32 | 33.53652 | -117.36016 | 31622 ft | 440 kts | 104° |
| 2026-05-09 02:32 | 33.52802 | -117.32507 | 32088 ft | 438 kts | 106° |
| 2026-05-09 02:32 | 33.51903 | -117.29019 | 32506 ft | 438 kts | 105° |
| 2026-05-09 02:33 | 33.51025 | -117.25531 | 32906 ft | 437 kts | 105° |
| 2026-05-09 02:33 | 33.50340 | -117.21994 | 33313 ft | 433 kts | 92° |
| 2026-05-09 02:33 | 33.50240 | -117.18651 | 33728 ft | 429 kts | 88° |
| 2026-05-09 02:33 | 33.50229 | -117.15363 | 34122 ft | 428 kts | 88° |
| 2026-05-09 02:34 | 33.50236 | -117.11743 | 34296 ft | 432 kts | 87° |
| 2026-05-09 02:34 | 33.50222 | -117.05267 | 34396 ft | 444 kts | 88° |
| 2026-05-09 02:34 | 33.50190 | -117.01540 | 34498 ft | 450 kts | 88° |
| 2026-05-09 02:35 | 33.50189 | -116.97777 | 34697 ft | 451 kts | 85° |
| 2026-05-09 02:35 | 33.50504 | -116.94100 | 34869 ft | 450 kts | 76° |
| 2026-05-09 02:35 | 33.50940 | -116.90371 | 34987 ft | 457 kts | 86° |
| 2026-05-09 02:35 | 33.50818 | -116.86551 | 35158 ft | 461 kts | 92° |
| 2026-05-09 02:36 | 33.50568 | -116.82717 | 35373 ft | 462 kts | 92° |
| 2026-05-09 02:36 | 33.50315 | -116.78879 | 35663 ft | 461 kts | 92° |
| 2026-05-09 02:36 | 33.50081 | -116.75066 | 36037 ft | 457 kts | 91° |
| 2026-05-09 02:36 | 33.49934 | -116.71279 | 36372 ft | 454 kts | 89° |
| 2026-05-09 02:37 | 33.49854 | -116.67513 | 36687 ft | 452 kts | 88° |
| 2026-05-09 02:37 | 33.49782 | -116.63746 | 36941 ft | 451 kts | 88° |
| 2026-05-09 02:37 | 33.49701 | -116.59972 | 36892 ft | 455 kts | 89° |
| 2026-05-09 02:38 | 33.49514 | -116.52381 | 36899 ft | 456 kts | 89° |
| 2026-05-09 02:38 | 33.49325 | -116.44798 | 36869 ft | 454 kts | 89° |
| 2026-05-09 02:39 | 33.49010 | -116.37236 | 36868 ft | 458 kts | 90° |
| 2026-05-09 02:39 | 33.48948 | -116.29569 | 36849 ft | 461 kts | 87° |
| 2026-05-09 02:40 | 33.48916 | -116.21880 | 36790 ft | 462 kts | 88° |
| 2026-05-09 02:40 | 33.48795 | -116.14224 | 36782 ft | 463 kts | 89° |
| 2026-05-09 02:41 | 33.48675 | -116.06513 | 36778 ft | 462 kts | 86° |
| 2026-05-09 02:41 | 33.49763 | -115.99005 | 36777 ft | 455 kts | 69° |
| 2026-05-09 02:42 | 33.51901 | -115.91868 | 36776 ft | 456 kts | 68° |
| 2026-05-09 02:42 | 33.54013 | -115.84724 | 36780 ft | 456 kts | 67° |
| 2026-05-09 02:43 | 33.56196 | -115.77587 | 36784 ft | 456 kts | 68° |
| 2026-05-09 02:43 | 33.58276 | -115.70373 | 36788 ft | 457 kts | 69° |
| 2026-05-09 02:44 | 33.60346 | -115.63216 | 36792 ft | 457 kts | 68° |
| 2026-05-09 02:44 | 33.61781 | -115.55768 | 36789 ft | 462 kts | 84° |
| 2026-05-09 02:45 | 33.61667 | -115.48034 | 36785 ft | 465 kts | 90° |
| 2026-05-09 02:45 | 33.61398 | -115.40280 | 36802 ft | 465 kts | 90° |
| 2026-05-09 02:46 | 33.61167 | -115.32520 | 36800 ft | 466 kts | 90° |
| 2026-05-09 02:46 | 33.60969 | -115.24750 | 36802 ft | 466 kts | 91° |
| 2026-05-09 02:47 | 33.60695 | -115.16982 | 36789 ft | 465 kts | 88° |
| 2026-05-09 02:47 | 33.60619 | -115.09211 | 36784 ft | 466 kts | 90° |
| 2026-05-09 02:48 | 33.60367 | -115.01493 | 36800 ft | 466 kts | 90° |
| 2026-05-09 02:48 | 33.60097 | -114.93720 | 36784 ft | 466 kts | 90° |
| 2026-05-09 02:49 | 33.59895 | -114.85944 | 36795 ft | 467 kts | 90° |
| 2026-05-09 02:49 | 33.59663 | -114.78155 | 36802 ft | 467 kts | 90° |
| 2026-05-09 02:50 | 33.59206 | -114.70370 | 36792 ft | 469 kts | 94° |
| 2026-05-09 02:50 | 33.58466 | -114.62597 | 36795 ft | 469 kts | 95° |
| 2026-05-09 02:51 | 33.57715 | -114.54812 | 36800 ft | 469 kts | 95° |
| 2026-05-09 02:51 | 33.56997 | -114.47038 | 36791 ft | 469 kts | 95° |
| 2026-05-09 02:52 | 33.56291 | -114.39259 | 36788 ft | 469 kts | 95° |
| 2026-05-09 02:52 | 33.55580 | -114.31473 | 36793 ft | 470 kts | 95° |
| 2026-05-09 02:53 | 33.54986 | -114.25006 | 36795 ft | 470 kts | 95° |
| 2026-05-09 02:53 | 33.54148 | -114.15964 | 36799 ft | 469 kts | 95° |
| 2026-05-09 02:54 | 33.53423 | -114.08194 | 36809 ft | 469 kts | 95° |
| 2026-05-09 02:54 | 33.52691 | -114.00416 | 36803 ft | 470 kts | 95° |
| 2026-05-09 02:55 | 33.52075 | -113.93896 | 36849 ft | 470 kts | 95° |
| 2026-05-09 02:55 | 33.51340 | -113.86162 | 36882 ft | 470 kts | 95° |
| 2026-05-09 02:56 | 33.50598 | -113.78323 | 36928 ft | 471 kts | 95° |
| 2026-05-09 02:56 | 33.49861 | -113.70573 | 36953 ft | 471 kts | 95° |
| 2026-05-09 02:57 | 33.49113 | -113.62774 | 36966 ft | 471 kts | 95° |
| 2026-05-09 02:57 | 33.48360 | -113.54973 | 36966 ft | 471 kts | 95° |
| 2026-05-09 02:58 | 33.47603 | -113.47180 | 36933 ft | 471 kts | 95° |
| 2026-05-09 02:58 | 33.47223 | -113.43284 | 36797 ft | 471 kts | 95° |
| 2026-05-09 02:58 | 33.46784 | -113.39395 | 36792 ft | 472 kts | 101° |
| 2026-05-09 02:58 | 33.45809 | -113.35637 | 36811 ft | 473 kts | 113° |
| 2026-05-09 02:59 | 33.44269 | -113.32146 | 36784 ft | 474 kts | 123° |
| 2026-05-09 02:59 | 33.40022 | -113.26123 | 36797 ft | 474 kts | 132° |
| 2026-05-09 03:00 | 33.35557 | -113.20323 | 36786 ft | 474 kts | 132° |
| 2026-05-09 03:00 | 33.31117 | -113.14479 | 36791 ft | 474 kts | 131° |
| 2026-05-09 03:01 | 33.26707 | -113.08609 | 36778 ft | 475 kts | 132° |
| 2026-05-09 03:01 | 33.22323 | -113.02768 | 36783 ft | 475 kts | 132° |
| 2026-05-09 03:02 | 33.17903 | -112.96892 | 36789 ft | 476 kts | 132° |
| 2026-05-09 03:02 | 33.13445 | -112.90978 | 36785 ft | 476 kts | 132° |
| 2026-05-09 03:03 | 33.09038 | -112.85142 | 36779 ft | 476 kts | 132° |
| 2026-05-09 03:03 | 33.04605 | -112.79280 | 36821 ft | 476 kts | 132° |
| 2026-05-09 03:04 | 33.00165 | -112.73417 | 36816 ft | 476 kts | 132° |
| 2026-05-09 03:04 | 32.96373 | -112.67016 | 36833 ft | 474 kts | 113° |
| 2026-05-09 03:05 | 32.94734 | -112.59470 | 36832 ft | 471 kts | 95° |
| 2026-05-09 03:05 | 32.94409 | -112.55555 | 36320 ft | 479 kts | 94° |
| 2026-05-09 03:05 | 32.94103 | -112.51598 | 35785 ft | 479 kts | 94° |
| 2026-05-09 03:05 | 32.93791 | -112.47653 | 35133 ft | 479 kts | 94° |
| 2026-05-09 03:06 | 32.93463 | -112.43708 | 34469 ft | 478 kts | 95° |
| 2026-05-09 03:06 | 32.93120 | -112.39774 | 33795 ft | 477 kts | 95° |
| 2026-05-09 03:06 | 32.92768 | -112.35853 | 33008 ft | 477 kts | 95° |
| 2026-05-09 03:06 | 32.92410 | -112.31937 | 32264 ft | 476 kts | 95° |
| 2026-05-09 03:07 | 32.92053 | -112.28040 | 31765 ft | 471 kts | 96° |
| 2026-05-09 03:07 | 32.91718 | -112.24142 | 31253 ft | 480 kts | 95° |
| 2026-05-09 03:07 | 32.91298 | -112.20235 | 30734 ft | 481 kts | 97° |
| 2026-05-09 03:07 | 32.90893 | -112.16317 | 30209 ft | 474 kts | 94° |
| 2026-05-09 03:08 | 32.90582 | -112.12433 | 29673 ft | 468 kts | 95° |
| 2026-05-09 03:08 | 32.90228 | -112.08601 | 29098 ft | 463 kts | 95° |
| 2026-05-09 03:08 | 32.89885 | -112.04812 | 28558 ft | 457 kts | 95° |
| 2026-05-09 03:08 | 32.89549 | -112.01064 | 28031 ft | 452 kts | 95° |
| 2026-05-09 03:09 | 32.89205 | -111.97371 | 27520 ft | 447 kts | 95° |
| 2026-05-09 03:09 | 32.88639 | -111.93759 | 26977 ft | 444 kts | 108° |
| 2026-05-09 03:09 | 32.87232 | -111.90514 | 26528 ft | 440 kts | 126° |
| 2026-05-09 03:09 | 32.85165 | -111.87861 | 26031 ft | 436 kts | 142° |
| 2026-05-09 03:10 | 32.82700 | -111.85786 | 25571 ft | 431 kts | 146° |
| 2026-05-09 03:10 | 32.80222 | -111.83803 | 25067 ft | 428 kts | 146° |
| 2026-05-09 03:10 | 32.77759 | -111.81835 | 24573 ft | 425 kts | 146° |
| 2026-05-09 03:10 | 32.75315 | -111.79861 | 24094 ft | 423 kts | 146° |
| 2026-05-09 03:11 | 32.72896 | -111.77885 | 23605 ft | 422 kts | 146° |
| 2026-05-09 03:11 | 32.70511 | -111.75923 | 23063 ft | 421 kts | 145° |
| 2026-05-09 03:11 | 32.68121 | -111.73950 | 22540 ft | 418 kts | 145° |
| 2026-05-09 03:11 | 32.65734 | -111.71984 | 22042 ft | 414 kts | 145° |
| 2026-05-09 03:12 | 32.63377 | -111.70053 | 21561 ft | 410 kts | 144° |
| 2026-05-09 03:12 | 32.61067 | -111.68113 | 21083 ft | 405 kts | 144° |
| 2026-05-09 03:12 | 32.58773 | -111.66189 | 20627 ft | 401 kts | 144° |
| 2026-05-09 03:12 | 32.56501 | -111.64303 | 20165 ft | 397 kts | 142° |
| 2026-05-09 03:13 | 32.52716 | -111.59707 | 19263 ft | 386 kts | 126° |
| 2026-05-09 03:13 | 32.51175 | -111.57115 | 18819 ft | 383 kts | 124° |
| 2026-05-09 03:13 | 32.49633 | -111.54565 | 18447 ft | 379 kts | 125° |
| 2026-05-09 03:14 | 32.48078 | -111.52061 | 17986 ft | 376 kts | 126° |
| 2026-05-09 03:14 | 32.46518 | -111.49589 | 17496 ft | 373 kts | 126° |
| 2026-05-09 03:14 | 32.44974 | -111.47142 | 17128 ft | 367 kts | 126° |
| 2026-05-09 03:14 | 32.43458 | -111.44786 | 17000 ft | 354 kts | 126° |
| 2026-05-09 03:15 | 32.42015 | -111.42508 | 16858 ft | 346 kts | 125° |
| 2026-05-09 03:15 | 32.40578 | -111.40230 | 16727 ft | 347 kts | 125° |
| 2026-05-09 03:15 | 32.39118 | -111.37916 | 16599 ft | 353 kts | 125° |
| 2026-05-09 03:15 | 32.37640 | -111.35580 | 16450 ft | 355 kts | 125° |
| 2026-05-09 03:16 | 32.36145 | -111.33250 | 16227 ft | 356 kts | 128° |
| 2026-05-09 03:16 | 32.34230 | -111.31355 | 15837 ft | 362 kts | 146° |
| 2026-05-09 03:16 | 32.32092 | -111.29833 | 15519 ft | 359 kts | 147° |
| 2026-05-09 03:16 | 32.31665 | -111.29535 | 15442 ft | 358 kts | 147° |
| 2026-05-09 03:17 | 32.30086 | -111.28430 | 15188 ft | 357 kts | 147° |
| 2026-05-09 03:17 | 32.27957 | -111.26931 | 14851 ft | 356 kts | 146° |
| 2026-05-09 03:17 | 32.26928 | -111.26200 | 14680 ft | 355 kts | 146° |
| 2026-05-09 03:18 | 32.25737 | -111.25351 | 14490 ft | 354 kts | 146° |
| 2026-05-09 03:18 | 32.23647 | -111.23850 | 14150 ft | 349 kts | 146° |
| 2026-05-09 03:18 | 32.21582 | -111.22361 | 13815 ft | 345 kts | 145° |
| 2026-05-09 03:18 | 32.19545 | -111.20888 | 13441 ft | 341 kts | 145° |
| 2026-05-09 03:19 | 32.17534 | -111.19432 | 13076 ft | 337 kts | 145° |
| 2026-05-09 03:19 | 32.15538 | -111.17986 | 12731 ft | 334 kts | 145° |
| 2026-05-09 03:19 | 32.13566 | -111.16560 | 12394 ft | 331 kts | 146° |
| 2026-05-09 03:19 | 32.11637 | -111.15170 | 12077 ft | 328 kts | 145° |
| 2026-05-09 03:20 | 32.09701 | -111.13770 | 11734 ft | 325 kts | 146° |
| 2026-05-09 03:20 | 32.07865 | -111.12274 | 11598 ft | 314 kts | 139° |
| 2026-05-09 03:20 | 32.06204 | -111.10617 | 11217 ft | 311 kts | 136° |
| 2026-05-09 03:20 | 32.04605 | -111.08936 | 10896 ft | 304 kts | 136° |
| 2026-05-09 03:21 | 32.03028 | -111.07301 | 10539 ft | 300 kts | 136° |
| 2026-05-09 03:21 | 32.01488 | -111.05666 | 10246 ft | 296 kts | 135° |
| 2026-05-09 03:21 | 31.99952 | -111.04078 | 9901 ft | 293 kts | 139° |
| 2026-05-09 03:21 | 31.98391 | -111.02539 | 9555 ft | 294 kts | 137° |
| 2026-05-09 03:22 | 31.96839 | -111.00948 | 9226 ft | 298 kts | 138° |
| 2026-05-09 03:22 | 31.95257 | -110.99361 | 8921 ft | 300 kts | 139° |
| 2026-05-09 03:22 | 31.93669 | -110.97773 | 8611 ft | 299 kts | 139° |
| 2026-05-09 03:22 | 31.92140 | -110.96132 | 8317 ft | 297 kts | 134° |
| 2026-05-09 03:23 | 31.90682 | -110.94413 | 8017 ft | 295 kts | 133° |
| 2026-05-09 03:23 | 31.89237 | -110.92729 | 7713 ft | 289 kts | 133° |
| 2026-05-09 03:23 | 31.88250 | -110.90773 | 7400 ft | 275 kts | 97° |
| 2026-05-09 03:23 | 31.88195 | -110.88595 | 7171 ft | 262 kts | 77° |
| 2026-05-09 03:24 | 31.88673 | -110.86576 | 6953 ft | 249 kts | 59° |
| 2026-05-09 03:24 | 31.89713 | -110.85081 | 6837 ft | 229 kts | 39° |
| 2026-05-09 03:24 | 31.90818 | -110.83774 | 6725 ft | 222 kts | 42° |
| 2026-05-09 03:24 | 31.91866 | -110.82476 | 6628 ft | 215 kts | 41° |
| 2026-05-09 03:25 | 31.92898 | -110.81246 | 6556 ft | 213 kts | 39° |
| 2026-05-09 03:25 | 31.93941 | -110.80027 | 6485 ft | 210 kts | 41° |
| 2026-05-09 03:25 | 31.94980 | -110.78810 | 6404 ft | 212 kts | 40° |
| 2026-05-09 03:25 | 31.96194 | -110.77902 | 6225 ft | 206 kts | 9° |
| 2026-05-09 03:26 | 31.97565 | -110.77966 | 5985 ft | 194 kts | 339° |
| 2026-05-09 03:26 | 31.98676 | -110.78779 | 5767 ft | 185 kts | 317° |
| 2026-05-09 03:26 | 31.99585 | -110.79812 | 5528 ft | 178 kts | 316° |
| 2026-05-09 03:26 | 32.00440 | -110.80837 | 5292 ft | 172 kts | 314° |
| 2026-05-09 03:27 | 32.01277 | -110.81801 | 5094 ft | 164 kts | 315° |
| 2026-05-09 03:27 | 32.02061 | -110.82728 | 4906 ft | 154 kts | 316° |
| 2026-05-09 03:27 | 32.02790 | -110.83585 | 4681 ft | 142 kts | 316° |
| 2026-05-09 03:27 | 32.03483 | -110.84395 | 4571 ft | 140 kts | 316° |
| 2026-05-09 03:28 | 32.04176 | -110.85211 | 4373 ft | 142 kts | 319° |
| 2026-05-09 03:28 | 32.04905 | -110.86031 | 4188 ft | 145 kts | 316° |
| 2026-05-09 03:28 | 32.05625 | -110.86898 | 3994 ft | 146 kts | 315° |
| 2026-05-09 03:28 | 32.06327 | -110.87745 | 3784 ft | 145 kts | 316° |
| 2026-05-09 03:29 | 32.07012 | -110.88598 | 3546 ft | 148 kts | 316° |
| 2026-05-09 03:29 | 32.07728 | -110.89426 | 3448 ft | 145 kts | 319° |
| 2026-05-09 03:29 | 32.08484 | -110.90302 | 3262 ft | 154 kts | 316° |
| 2026-05-09 03:29 | 32.09247 | -110.91160 | 3042 ft | 153 kts | 316° |
| 2026-05-09 03:30 | 32.09993 | -110.92050 | 2761 ft | 153 kts | 314° |
| 2026-05-09 03:30 | 32.10732 | -110.92915 | 2609 ft | 140 kts | 315° |
| 2026-05-09 03:30 | 32.11290 | -110.93562 | 2610 ft | 81 kts | 315° |
| 2026-05-09 03:30 | 32.11541 | -110.93843 | 2606 ft | 21 kts | 332° |
| 2026-05-09 03:31 | 32.11608 | -110.93876 | 2605 ft | 0 kts | 344° |
| 2026-05-09 03:31 | 32.11609 | -110.93877 | 2605 ft | 1 kts | 344° |
| 2026-05-09 03:31 | 32.11659 | -110.93884 | 2604 ft | 10 kts | 5° |
| 2026-05-09 03:31 | 32.11702 | -110.93861 | 2603 ft | 13 kts | 29° |
| 2026-05-09 03:32 | 32.11794 | -110.93913 | 2603 ft | 16 kts | 324° |
| 2026-05-09 03:32 | 32.11875 | -110.94003 | 2604 ft | 15 kts | 316° |
| 2026-05-09 03:32 | 32.11947 | -110.94090 | 2604 ft | 15 kts | 323° |
| 2026-05-09 03:32 | 32.12025 | -110.94099 | 2604 ft | 11 kts | 12° |
| 2026-05-09 03:33 | 32.12084 | -110.94092 | 2604 ft | 6 kts | 6° |
| 2026-05-09 03:33 | 32.12106 | -110.94086 | 2605 ft | 2 kts | 21° |
| 2026-05-09 03:33 | 32.12119 | -110.94075 | 2605 ft | 1 kts | 44° |
| 2026-05-09 03:33 | 32.12123 | -110.94064 | 2605 ft | 4 kts | 71° |
| 2026-05-09 03:34 | 32.12126 | -110.94038 | 2605 ft | 2 kts | 85° |
| 2026-05-09 03:34 | 32.12126 | -110.94030 | 2605 ft | 0 kts | 87° |